sensor_id;sensor_type;location;lat;lon;timestamp;P1;durP1;ratioP1;P2;durP2;ratioP2
9228;SDS011;4649;42.644;23.284;2022-10-10T00:00:17;9.40;;;8.77;;
9228;SDS011;4649;42.644;23.284;2022-10-10T00:02:45;9.07;;;8.57;;
9228;SDS011;4649;42.644;23.284;2022-10-10T00:05:12;14.87;;;8.80;;
9228;SDS011;4649;42.644;23.284;2022-10-10T00:07:55;9.23;;;8.53;;
9228;SDS011;4649;42.644;23.284;2022-10-10T00:10:23;17.07;;;10.20;;
9228;SDS011;4649;42.644;23.284;2022-10-10T00:12:53;10.03;;;9.23;;
9228;SDS011;4649;42.644;23.284;2022-10-10T00:15:23;9.77;;;8.90;;
9228;SDS011;4649;42.644;23.284;2022-10-10T00:17:53;9.00;;;8.43;;
9228;SDS011;4649;42.644;23.284;2022-10-10T00:20:21;9.83;;;9.17;;
9228;SDS011;4649;42.644;23.284;2022-10-10T00:26:02;9.77;;;9.10;;
9228;SDS011;4649;42.644;23.284;2022-10-10T00:28:34;12.43;;;10.40;;
9228;SDS011;4649;42.644;23.284;2022-10-10T00:31:07;11.33;;;10.43;;
9228;SDS011;4649;42.644;23.284;2022-10-10T00:33:38;11.67;;;10.77;;
9228;SDS011;4649;42.644;23.284;2022-10-10T00:36:08;11.40;;;10.57;;
9228;SDS011;4649;42.644;23.284;2022-10-10T00:38:39;10.37;;;9.53;;
9228;SDS011;4649;42.644;23.284;2022-10-10T00:41:09;10.83;;;9.93;;
9228;SDS011;4649;42.644;23.284;2022-10-10T00:43:37;10.30;;;9.70;;
9228;SDS011;4649;42.644;23.284;2022-10-10T00:46:10;10.47;;;9.67;;
9228;SDS011;4649;42.644;23.284;2022-10-10T00:48:47;11.40;;;10.47;;
9228;SDS011;4649;42.644;23.284;2022-10-10T00:51:16;10.97;;;10.23;;
9228;SDS011;4649;42.644;23.284;2022-10-10T00:53:54;10.60;;;9.90;;
9228;SDS011;4649;42.644;23.284;2022-10-10T00:56:34;11.80;;;10.53;;
9228;SDS011;4649;42.644;23.284;2022-10-10T00:59:08;11.23;;;10.40;;
9228;SDS011;4649;42.644;23.284;2022-10-10T01:01:40;11.33;;;10.63;;
9228;SDS011;4649;42.644;23.284;2022-10-10T01:04:29;11.13;;;10.50;;
9228;SDS011;4649;42.644;23.284;2022-10-10T01:07:05;10.90;;;10.17;;
9228;SDS011;4649;42.644;23.284;2022-10-10T01:09:41;10.63;;;9.40;;
9228;SDS011;4649;42.644;23.284;2022-10-10T01:12:24;14.30;;;10.17;;
9228;SDS011;4649;42.644;23.284;2022-10-10T01:14:59;10.73;;;9.77;;
9228;SDS011;4649;42.644;23.284;2022-10-10T01:17:34;10.63;;;9.90;;
9228;SDS011;4649;42.644;23.284;2022-10-10T01:20:17;10.57;;;9.40;;
9228;SDS011;4649;42.644;23.284;2022-10-10T01:26:27;12.27;;;11.27;;
9228;SDS011;4649;42.644;23.284;2022-10-10T01:29:14;12.07;;;11.33;;
9228;SDS011;4649;42.644;23.284;2022-10-10T01:31:53;11.00;;;8.67;;
9228;SDS011;4649;42.644;23.284;2022-10-10T01:34:26;9.77;;;9.03;;
9228;SDS011;4649;42.644;23.284;2022-10-10T01:37:00;8.80;;;8.30;;
9228;SDS011;4649;42.644;23.284;2022-10-10T01:39:35;7.77;;;7.27;;
9228;SDS011;4649;42.644;23.284;2022-10-10T01:42:11;9.20;;;7.37;;
9228;SDS011;4649;42.644;23.284;2022-10-10T01:47:34;7.33;;;6.73;;
9228;SDS011;4649;42.644;23.284;2022-10-10T01:50:02;9.17;;;7.47;;
9228;SDS011;4649;42.644;23.284;2022-10-10T01:52:38;9.00;;;8.50;;
9228;SDS011;4649;42.644;23.284;2022-10-10T01:55:22;9.80;;;8.93;;
9228;SDS011;4649;42.644;23.284;2022-10-10T01:58:21;10.20;;;9.27;;
9228;SDS011;4649;42.644;23.284;2022-10-10T02:01:07;9.47;;;8.67;;
9228;SDS011;4649;42.644;23.284;2022-10-10T02:03:43;9.50;;;8.70;;
9228;SDS011;4649;42.644;23.284;2022-10-10T02:06:20;8.60;;;7.93;;
9228;SDS011;4649;42.644;23.284;2022-10-10T02:09:10;9.23;;;8.43;;
9228;SDS011;4649;42.644;23.284;2022-10-10T02:11:44;9.00;;;8.27;;
9228;SDS011;4649;42.644;23.284;2022-10-10T02:14:15;9.07;;;8.47;;
9228;SDS011;4649;42.644;23.284;2022-10-10T02:16:48;8.17;;;7.37;;
9228;SDS011;4649;42.644;23.284;2022-10-10T02:19:23;10.30;;;9.40;;
9228;SDS011;4649;42.644;23.284;2022-10-10T02:21:53;8.90;;;8.30;;
9228;SDS011;4649;42.644;23.284;2022-10-10T02:24:22;10.17;;;9.30;;
9228;SDS011;4649;42.644;23.284;2022-10-10T02:26:52;10.17;;;9.37;;
9228;SDS011;4649;42.644;23.284;2022-10-10T02:29:30;12.60;;;10.00;;
9228;SDS011;4649;42.644;23.284;2022-10-10T02:32:05;10.40;;;9.17;;
9228;SDS011;4649;42.644;23.284;2022-10-10T02:34:41;12.23;;;9.60;;
9228;SDS011;4649;42.644;23.284;2022-10-10T02:37:19;10.67;;;9.40;;
9228;SDS011;4649;42.644;23.284;2022-10-10T02:39:50;10.37;;;8.63;;
9228;SDS011;4649;42.644;23.284;2022-10-10T02:42:36;9.70;;;8.80;;
9228;SDS011;4649;42.644;23.284;2022-10-10T02:45:07;11.30;;;9.33;;
9228;SDS011;4649;42.644;23.284;2022-10-10T02:47:41;9.53;;;8.93;;
9228;SDS011;4649;42.644;23.284;2022-10-10T02:50:14;10.97;;;10.07;;
9228;SDS011;4649;42.644;23.284;2022-10-10T02:52:45;12.40;;;11.20;;
9228;SDS011;4649;42.644;23.284;2022-10-10T02:55:14;12.17;;;10.97;;
9228;SDS011;4649;42.644;23.284;2022-10-10T02:57:45;11.87;;;10.77;;
9228;SDS011;4649;42.644;23.284;2022-10-10T03:00:23;12.37;;;11.07;;
9228;SDS011;4649;42.644;23.284;2022-10-10T03:03:04;12.10;;;11.20;;
9228;SDS011;4649;42.644;23.284;2022-10-10T03:05:33;11.60;;;10.83;;
9228;SDS011;4649;42.644;23.284;2022-10-10T03:08:02;10.40;;;9.80;;
9228;SDS011;4649;42.644;23.284;2022-10-10T03:10:37;10.87;;;9.70;;
9228;SDS011;4649;42.644;23.284;2022-10-10T03:13:12;10.50;;;9.60;;
9228;SDS011;4649;42.644;23.284;2022-10-10T03:15:42;11.33;;;9.83;;
9228;SDS011;4649;42.644;23.284;2022-10-10T03:18:11;9.93;;;9.23;;
9228;SDS011;4649;42.644;23.284;2022-10-10T03:23:17;11.10;;;10.30;;
9228;SDS011;4649;42.644;23.284;2022-10-10T03:25:45;11.90;;;10.93;;
9228;SDS011;4649;42.644;23.284;2022-10-10T03:28:13;11.30;;;10.60;;
9228;SDS011;4649;42.644;23.284;2022-10-10T03:30:48;9.93;;;9.33;;
9228;SDS011;4649;42.644;23.284;2022-10-10T03:33:19;16.10;;;11.00;;
9228;SDS011;4649;42.644;23.284;2022-10-10T03:35:50;11.13;;;9.90;;
9228;SDS011;4649;42.644;23.284;2022-10-10T03:38:21;10.33;;;9.40;;
9228;SDS011;4649;42.644;23.284;2022-10-10T03:40:49;9.27;;;8.57;;
9228;SDS011;4649;42.644;23.284;2022-10-10T03:43:20;10.70;;;8.40;;
9228;SDS011;4649;42.644;23.284;2022-10-10T03:45:51;8.60;;;8.07;;
9228;SDS011;4649;42.644;23.284;2022-10-10T03:48:23;8.50;;;8.00;;
9228;SDS011;4649;42.644;23.284;2022-10-10T03:50:51;8.67;;;7.87;;
9228;SDS011;4649;42.644;23.284;2022-10-10T03:53:19;7.97;;;7.47;;
9228;SDS011;4649;42.644;23.284;2022-10-10T03:55:57;10.57;;;7.77;;
9228;SDS011;4649;42.644;23.284;2022-10-10T03:58:25;8.53;;;7.90;;
9228;SDS011;4649;42.644;23.284;2022-10-10T04:00:55;10.53;;;9.50;;
9228;SDS011;4649;42.644;23.284;2022-10-10T04:03:34;14.37;;;10.17;;
9228;SDS011;4649;42.644;23.284;2022-10-10T04:06:07;11.43;;;10.53;;
9228;SDS011;4649;42.644;23.284;2022-10-10T04:08:36;11.03;;;10.07;;
9228;SDS011;4649;42.644;23.284;2022-10-10T04:11:07;12.33;;;11.43;;
9228;SDS011;4649;42.644;23.284;2022-10-10T04:13:35;12.97;;;12.03;;
9228;SDS011;4649;42.644;23.284;2022-10-10T04:16:03;13.13;;;11.80;;
9228;SDS011;4649;42.644;23.284;2022-10-10T04:18:33;13.07;;;11.50;;
9228;SDS011;4649;42.644;23.284;2022-10-10T04:21:01;13.03;;;12.13;;
9228;SDS011;4649;42.644;23.284;2022-10-10T04:23:29;15.67;;;14.20;;
9228;SDS011;4649;42.644;23.284;2022-10-10T04:25:56;16.03;;;14.43;;
9228;SDS011;4649;42.644;23.284;2022-10-10T04:28:24;12.93;;;11.73;;
9228;SDS011;4649;42.644;23.284;2022-10-10T04:34:19;12.97;;;12.00;;
9228;SDS011;4649;42.644;23.284;2022-10-10T04:37:08;11.00;;;9.70;;
9228;SDS011;4649;42.644;23.284;2022-10-10T04:40:24;12.00;;;10.97;;
9228;SDS011;4649;42.644;23.284;2022-10-10T04:42:54;13.50;;;9.93;;
9228;SDS011;4649;42.644;23.284;2022-10-10T04:45:26;9.77;;;9.07;;
9228;SDS011;4649;42.644;23.284;2022-10-10T04:47:56;12.17;;;11.07;;
9228;SDS011;4649;42.644;23.284;2022-10-10T04:50:25;8.90;;;8.40;;
9228;SDS011;4649;42.644;23.284;2022-10-10T04:52:53;9.50;;;8.70;;
9228;SDS011;4649;42.644;23.284;2022-10-10T04:55:21;8.47;;;7.70;;
9228;SDS011;4649;42.644;23.284;2022-10-10T04:58:12;13.37;;;12.47;;
9228;SDS011;4649;42.644;23.284;2022-10-10T05:00:40;12.97;;;11.80;;
9228;SDS011;4649;42.644;23.284;2022-10-10T05:08:34;11.00;;;7.00;;
9228;SDS011;4649;42.644;23.284;2022-10-10T05:11:02;7.33;;;6.73;;
9228;SDS011;4649;42.644;23.284;2022-10-10T05:13:29;7.87;;;7.13;;
9228;SDS011;4649;42.644;23.284;2022-10-10T05:15:56;9.07;;;7.80;;
9228;SDS011;4649;42.644;23.284;2022-10-10T05:18:23;16.63;;;8.10;;
9228;SDS011;4649;42.644;23.284;2022-10-10T05:20:49;13.27;;;8.53;;
9228;SDS011;4649;42.644;23.284;2022-10-10T05:23:16;12.00;;;9.33;;
9228;SDS011;4649;42.644;23.284;2022-10-10T05:25:46;11.73;;;8.93;;
9228;SDS011;4649;42.644;23.284;2022-10-10T05:28:14;9.73;;;8.97;;
9228;SDS011;4649;42.644;23.284;2022-10-10T05:30:41;8.60;;;8.00;;
9228;SDS011;4649;42.644;23.284;2022-10-10T05:33:08;8.47;;;7.77;;
9228;SDS011;4649;42.644;23.284;2022-10-10T05:35:35;9.23;;;7.60;;
9228;SDS011;4649;42.644;23.284;2022-10-10T05:38:03;10.77;;;8.50;;
9228;SDS011;4649;42.644;23.284;2022-10-10T05:40:30;9.40;;;8.43;;
9228;SDS011;4649;42.644;23.284;2022-10-10T05:42:58;13.33;;;8.67;;
9228;SDS011;4649;42.644;23.284;2022-10-10T05:45:25;12.67;;;9.33;;
9228;SDS011;4649;42.644;23.284;2022-10-10T05:47:52;9.33;;;8.43;;
9228;SDS011;4649;42.644;23.284;2022-10-10T05:50:24;9.43;;;8.50;;
9228;SDS011;4649;42.644;23.284;2022-10-10T05:52:55;12.27;;;9.13;;
9228;SDS011;4649;42.644;23.284;2022-10-10T05:55:23;11.63;;;10.50;;
9228;SDS011;4649;42.644;23.284;2022-10-10T05:57:50;10.10;;;9.20;;
9228;SDS011;4649;42.644;23.284;2022-10-10T06:00:19;9.97;;;9.03;;
9228;SDS011;4649;42.644;23.284;2022-10-10T06:02:46;17.60;;;9.73;;
9228;SDS011;4649;42.644;23.284;2022-10-10T06:05:13;15.07;;;13.87;;
9228;SDS011;4649;42.644;23.284;2022-10-10T06:07:44;15.83;;;13.03;;
9228;SDS011;4649;42.644;23.284;2022-10-10T06:10:11;12.60;;;11.43;;
9228;SDS011;4649;42.644;23.284;2022-10-10T06:12:38;10.37;;;9.23;;
9228;SDS011;4649;42.644;23.284;2022-10-10T06:15:05;10.10;;;9.33;;
9228;SDS011;4649;42.644;23.284;2022-10-10T06:17:35;10.27;;;8.90;;
9228;SDS011;4649;42.644;23.284;2022-10-10T06:20:02;11.07;;;8.57;;
9228;SDS011;4649;42.644;23.284;2022-10-10T06:22:29;14.87;;;10.20;;
9228;SDS011;4649;42.644;23.284;2022-10-10T06:24:56;24.20;;;20.13;;
9228;SDS011;4649;42.644;23.284;2022-10-10T06:27:23;17.45;;;9.88;;
9228;SDS011;4649;42.644;23.284;2022-10-10T06:29:49;14.93;;;9.55;;
9228;SDS011;4649;42.644;23.284;2022-10-10T06:32:16;11.50;;;9.07;;
9228;SDS011;4649;42.644;23.284;2022-10-10T06:34:44;23.52;;;9.60;;
9228;SDS011;4649;42.644;23.284;2022-10-10T06:37:11;15.13;;;10.27;;
9228;SDS011;4649;42.644;23.284;2022-10-10T06:39:38;15.32;;;9.00;;
9228;SDS011;4649;42.644;23.284;2022-10-10T06:42:05;34.15;;;13.55;;
9228;SDS011;4649;42.644;23.284;2022-10-10T06:44:32;14.67;;;11.57;;
9228;SDS011;4649;42.644;23.284;2022-10-10T06:46:59;17.57;;;12.20;;
9228;SDS011;4649;42.644;23.284;2022-10-10T06:49:25;40.43;;;11.27;;
9228;SDS011;4649;42.644;23.284;2022-10-10T06:51:54;19.57;;;10.73;;
9228;SDS011;4649;42.644;23.284;2022-10-10T06:54:21;13.30;;;10.60;;
9228;SDS011;4649;42.644;23.284;2022-10-10T06:56:48;17.67;;;11.23;;
9228;SDS011;4649;42.644;23.284;2022-10-10T06:59:15;12.10;;;10.77;;
9228;SDS011;4649;42.644;23.284;2022-10-10T07:01:41;14.87;;;10.27;;
9228;SDS011;4649;42.644;23.284;2022-10-10T07:04:08;11.57;;;10.37;;
9228;SDS011;4649;42.644;23.284;2022-10-10T07:06:36;14.30;;;10.33;;
9228;SDS011;4649;42.644;23.284;2022-10-10T07:09:05;11.83;;;9.40;;
9228;SDS011;4649;42.644;23.284;2022-10-10T07:11:37;11.23;;;8.53;;
9228;SDS011;4649;42.644;23.284;2022-10-10T07:14:09;10.27;;;7.60;;
9228;SDS011;4649;42.644;23.284;2022-10-10T07:16:36;8.23;;;7.37;;
9228;SDS011;4649;42.644;23.284;2022-10-10T07:19:03;19.80;;;8.33;;
9228;SDS011;4649;42.644;23.284;2022-10-10T07:21:30;8.43;;;7.23;;
9228;SDS011;4649;42.644;23.284;2022-10-10T07:23:57;8.43;;;7.37;;
9228;SDS011;4649;42.644;23.284;2022-10-10T07:26:27;12.10;;;6.97;;
9228;SDS011;4649;42.644;23.284;2022-10-10T07:28:55;19.40;;;7.07;;
9228;SDS011;4649;42.644;23.284;2022-10-10T07:31:22;11.57;;;7.17;;
9228;SDS011;4649;42.644;23.284;2022-10-10T07:33:49;8.73;;;6.27;;
9228;SDS011;4649;42.644;23.284;2022-10-10T07:36:16;11.97;;;6.57;;
9228;SDS011;4649;42.644;23.284;2022-10-10T07:38:43;14.03;;;6.73;;
9228;SDS011;4649;42.644;23.284;2022-10-10T07:41:11;7.67;;;6.87;;
9228;SDS011;4649;42.644;23.284;2022-10-10T07:43:40;7.40;;;5.60;;
9228;SDS011;4649;42.644;23.284;2022-10-10T07:46:11;9.57;;;6.17;;
9228;SDS011;4649;42.644;23.284;2022-10-10T07:48:40;40.10;;;9.20;;
9228;SDS011;4649;42.644;23.284;2022-10-10T07:51:07;10.37;;;5.93;;
9228;SDS011;4649;42.644;23.284;2022-10-10T07:53:34;6.00;;;5.47;;
9228;SDS011;4649;42.644;23.284;2022-10-10T07:56:02;6.60;;;6.13;;
9228;SDS011;4649;42.644;23.284;2022-10-10T07:58:29;13.30;;;8.07;;
9228;SDS011;4649;42.644;23.284;2022-10-10T08:01:02;21.00;;;7.90;;
9228;SDS011;4649;42.644;23.284;2022-10-10T08:03:29;11.10;;;7.10;;
9228;SDS011;4649;42.644;23.284;2022-10-10T08:05:56;16.67;;;7.77;;
9228;SDS011;4649;42.644;23.284;2022-10-10T08:08:23;9.03;;;8.23;;
9228;SDS011;4649;42.644;23.284;2022-10-10T08:10:50;13.90;;;8.03;;
9228;SDS011;4649;42.644;23.284;2022-10-10T08:13:17;10.37;;;9.33;;
9228;SDS011;4649;42.644;23.284;2022-10-10T08:15:44;11.23;;;9.80;;
9228;SDS011;4649;42.644;23.284;2022-10-10T08:18:16;11.37;;;9.93;;
9228;SDS011;4649;42.644;23.284;2022-10-10T08:20:43;9.43;;;8.60;;
9228;SDS011;4649;42.644;23.284;2022-10-10T08:23:10;12.00;;;8.60;;
9228;SDS011;4649;42.644;23.284;2022-10-10T08:25:38;19.37;;;8.60;;
9228;SDS011;4649;42.644;23.284;2022-10-10T08:28:04;9.47;;;7.13;;
9228;SDS011;4649;42.644;23.284;2022-10-10T08:30:31;17.20;;;8.77;;
9228;SDS011;4649;42.644;23.284;2022-10-10T08:32:58;9.97;;;8.93;;
9228;SDS011;4649;42.644;23.284;2022-10-10T08:35:27;9.47;;;8.57;;
9228;SDS011;4649;42.644;23.284;2022-10-10T08:37:53;9.97;;;8.53;;
9228;SDS011;4649;42.644;23.284;2022-10-10T08:40:20;7.97;;;7.37;;
9228;SDS011;4649;42.644;23.284;2022-10-10T08:42:48;13.17;;;7.77;;
9228;SDS011;4649;42.644;23.284;2022-10-10T08:45:18;13.40;;;7.47;;
9228;SDS011;4649;42.644;23.284;2022-10-10T08:47:48;15.60;;;7.17;;
9228;SDS011;4649;42.644;23.284;2022-10-10T08:50:20;11.77;;;6.43;;
9228;SDS011;4649;42.644;23.284;2022-10-10T08:52:53;19.17;;;7.50;;
9228;SDS011;4649;42.644;23.284;2022-10-10T08:55:25;10.30;;;9.37;;
9228;SDS011;4649;42.644;23.284;2022-10-10T08:57:58;8.27;;;7.47;;
9228;SDS011;4649;42.644;23.284;2022-10-10T09:00:29;7.83;;;5.33;;
9228;SDS011;4649;42.644;23.284;2022-10-10T09:03:00;11.97;;;4.93;;
9228;SDS011;4649;42.644;23.284;2022-10-10T09:05:35;5.23;;;4.70;;
9228;SDS011;4649;42.644;23.284;2022-10-10T09:08:19;4.30;;;3.93;;
9228;SDS011;4649;42.644;23.284;2022-10-10T09:10:58;8.80;;;4.37;;
9228;SDS011;4649;42.644;23.284;2022-10-10T09:13:32;5.00;;;4.60;;
9228;SDS011;4649;42.644;23.284;2022-10-10T09:16:03;6.00;;;4.30;;
9228;SDS011;4649;42.644;23.284;2022-10-10T09:18:42;7.33;;;5.20;;
9228;SDS011;4649;42.644;23.284;2022-10-10T09:21:18;9.57;;;5.20;;
9228;SDS011;4649;42.644;23.284;2022-10-10T09:23:50;5.23;;;4.90;;
9228;SDS011;4649;42.644;23.284;2022-10-10T09:26:23;9.23;;;4.47;;
9228;SDS011;4649;42.644;23.284;2022-10-10T09:28:54;5.53;;;4.13;;
9228;SDS011;4649;42.644;23.284;2022-10-10T09:31:30;10.37;;;5.73;;
9228;SDS011;4649;42.644;23.284;2022-10-10T09:34:00;5.07;;;4.63;;
9228;SDS011;4649;42.644;23.284;2022-10-10T09:36:35;4.97;;;4.47;;
9228;SDS011;4649;42.644;23.284;2022-10-10T09:39:05;5.87;;;5.37;;
9228;SDS011;4649;42.644;23.284;2022-10-10T09:41:42;7.43;;;4.73;;
9228;SDS011;4649;42.644;23.284;2022-10-10T09:44:13;6.23;;;4.00;;
9228;SDS011;4649;42.644;23.284;2022-10-10T09:46:43;5.87;;;5.23;;
9228;SDS011;4649;42.644;23.284;2022-10-10T09:49:11;8.57;;;4.80;;
9228;SDS011;4649;42.644;23.284;2022-10-10T09:51:40;5.97;;;4.70;;
9228;SDS011;4649;42.644;23.284;2022-10-10T09:54:09;5.00;;;4.50;;
9228;SDS011;4649;42.644;23.284;2022-10-10T09:56:37;9.93;;;4.63;;
9228;SDS011;4649;42.644;23.284;2022-10-10T10:02:10;4.53;;;4.13;;
9228;SDS011;4649;42.644;23.284;2022-10-10T10:04:39;11.47;;;4.50;;
9228;SDS011;4649;42.644;23.284;2022-10-10T10:07:16;4.83;;;4.53;;
9228;SDS011;4649;42.644;23.284;2022-10-10T10:09:47;7.97;;;5.43;;
9228;SDS011;4649;42.644;23.284;2022-10-10T10:12:16;9.33;;;4.60;;
9228;SDS011;4649;42.644;23.284;2022-10-10T10:14:51;6.20;;;4.47;;
9228;SDS011;4649;42.644;23.284;2022-10-10T10:17:25;4.40;;;3.90;;
9228;SDS011;4649;42.644;23.284;2022-10-10T10:19:52;5.03;;;4.23;;
9228;SDS011;4649;42.644;23.284;2022-10-10T10:22:24;4.30;;;4.10;;
9228;SDS011;4649;42.644;23.284;2022-10-10T10:24:56;5.47;;;4.50;;
9228;SDS011;4649;42.644;23.284;2022-10-10T10:27:24;6.60;;;4.43;;
9228;SDS011;4649;42.644;23.284;2022-10-10T10:29:53;6.23;;;4.57;;
9228;SDS011;4649;42.644;23.284;2022-10-10T10:32:31;3.90;;;3.70;;
9228;SDS011;4649;42.644;23.284;2022-10-10T10:35:08;3.87;;;3.67;;
9228;SDS011;4649;42.644;23.284;2022-10-10T10:37:45;4.53;;;4.23;;
9228;SDS011;4649;42.644;23.284;2022-10-10T10:40:27;4.40;;;4.00;;
9228;SDS011;4649;42.644;23.284;2022-10-10T10:43:13;4.50;;;4.10;;
9228;SDS011;4649;42.644;23.284;2022-10-10T10:45:56;7.47;;;4.50;;
9228;SDS011;4649;42.644;23.284;2022-10-10T10:48:33;5.17;;;3.77;;
9228;SDS011;4649;42.644;23.284;2022-10-10T10:51:07;4.77;;;4.43;;
9228;SDS011;4649;42.644;23.284;2022-10-10T10:53:43;6.50;;;5.30;;
9228;SDS011;4649;42.644;23.284;2022-10-10T10:56:22;17.10;;;5.10;;
9228;SDS011;4649;42.644;23.284;2022-10-10T11:02:19;11.47;;;4.13;;
9228;SDS011;4649;42.644;23.284;2022-10-10T11:05:03;5.93;;;4.50;;
9228;SDS011;4649;42.644;23.284;2022-10-10T11:07:48;4.90;;;4.50;;
9228;SDS011;4649;42.644;23.284;2022-10-10T11:10:23;4.40;;;4.10;;
9228;SDS011;4649;42.644;23.284;2022-10-10T11:12:58;7.03;;;4.97;;
9228;SDS011;4649;42.644;23.284;2022-10-10T11:15:32;6.57;;;4.53;;
9228;SDS011;4649;42.644;23.284;2022-10-10T11:18:09;9.80;;;4.93;;
9228;SDS011;4649;42.644;23.284;2022-10-10T11:20:40;4.77;;;4.13;;
9228;SDS011;4649;42.644;23.284;2022-10-10T11:23:11;6.83;;;4.60;;
9228;SDS011;4649;42.644;23.284;2022-10-10T11:25:44;5.07;;;4.77;;
9228;SDS011;4649;42.644;23.284;2022-10-10T11:28:16;12.07;;;5.37;;
9228;SDS011;4649;42.644;23.284;2022-10-10T11:30:47;4.97;;;4.60;;
9228;SDS011;4649;42.644;23.284;2022-10-10T11:33:21;5.03;;;4.70;;
9228;SDS011;4649;42.644;23.284;2022-10-10T11:35:54;4.50;;;4.20;;
9228;SDS011;4649;42.644;23.284;2022-10-10T11:38:27;7.90;;;4.47;;
9228;SDS011;4649;42.644;23.284;2022-10-10T11:40:59;4.53;;;4.13;;
9228;SDS011;4649;42.644;23.284;2022-10-10T11:43:31;5.37;;;4.97;;
9228;SDS011;4649;42.644;23.284;2022-10-10T11:46:05;5.60;;;4.43;;
9228;SDS011;4649;42.644;23.284;2022-10-10T11:48:42;10.27;;;5.13;;
9228;SDS011;4649;42.644;23.284;2022-10-10T11:51:18;5.40;;;5.03;;
9228;SDS011;4649;42.644;23.284;2022-10-10T11:53:52;4.27;;;4.00;;
9228;SDS011;4649;42.644;23.284;2022-10-10T11:56:24;4.83;;;4.43;;
9228;SDS011;4649;42.644;23.284;2022-10-10T11:58:59;4.77;;;4.53;;
9228;SDS011;4649;42.644;23.284;2022-10-10T12:01:32;6.57;;;4.23;;
9228;SDS011;4649;42.644;23.284;2022-10-10T12:04:03;5.43;;;5.07;;
9228;SDS011;4649;42.644;23.284;2022-10-10T12:06:32;10.23;;;5.57;;
9228;SDS011;4649;42.644;23.284;2022-10-10T12:09:02;8.27;;;5.03;;
9228;SDS011;4649;42.644;23.284;2022-10-10T12:11:35;6.63;;;4.60;;
9228;SDS011;4649;42.644;23.284;2022-10-10T12:14:06;6.90;;;4.77;;
9228;SDS011;4649;42.644;23.284;2022-10-10T12:16:35;6.20;;;4.07;;
9228;SDS011;4649;42.644;23.284;2022-10-10T12:19:05;5.17;;;3.77;;
9228;SDS011;4649;42.644;23.284;2022-10-10T12:21:56;4.53;;;4.20;;
9228;SDS011;4649;42.644;23.284;2022-10-10T12:24:26;6.57;;;4.90;;
9228;SDS011;4649;42.644;23.284;2022-10-10T12:27:24;10.17;;;4.43;;
9228;SDS011;4649;42.644;23.284;2022-10-10T12:32:43;4.03;;;3.80;;
9228;SDS011;4649;42.644;23.284;2022-10-10T12:35:29;11.63;;;4.40;;
9228;SDS011;4649;42.644;23.284;2022-10-10T12:38:18;4.80;;;4.17;;
9228;SDS011;4649;42.644;23.284;2022-10-10T12:41:07;4.70;;;4.30;;
9228;SDS011;4649;42.644;23.284;2022-10-10T12:43:40;4.77;;;4.37;;
9228;SDS011;4649;42.644;23.284;2022-10-10T12:46:15;3.90;;;3.70;;
9228;SDS011;4649;42.644;23.284;2022-10-10T12:48:44;5.23;;;3.83;;
9228;SDS011;4649;42.644;23.284;2022-10-10T12:51:23;4.63;;;4.20;;
9228;SDS011;4649;42.644;23.284;2022-10-10T12:53:51;6.13;;;4.10;;
9228;SDS011;4649;42.644;23.284;2022-10-10T12:56:37;5.10;;;4.20;;
9228;SDS011;4649;42.644;23.284;2022-10-10T12:59:12;8.97;;;4.10;;
9228;SDS011;4649;42.644;23.284;2022-10-10T13:01:45;4.40;;;4.10;;
9228;SDS011;4649;42.644;23.284;2022-10-10T13:04:17;8.77;;;3.43;;
9228;SDS011;4649;42.644;23.284;2022-10-10T13:06:46;7.43;;;4.17;;
9228;SDS011;4649;42.644;23.284;2022-10-10T13:09:18;3.53;;;3.33;;
9228;SDS011;4649;42.644;23.284;2022-10-10T13:11:51;4.57;;;4.37;;
9228;SDS011;4649;42.644;23.284;2022-10-10T13:14:19;4.57;;;4.27;;
9228;SDS011;4649;42.644;23.284;2022-10-10T13:16:46;9.83;;;4.30;;
9228;SDS011;4649;42.644;23.284;2022-10-10T13:19:17;4.60;;;4.30;;
9228;SDS011;4649;42.644;23.284;2022-10-10T13:21:47;17.93;;;4.63;;
9228;SDS011;4649;42.644;23.284;2022-10-10T13:24:16;11.73;;;5.03;;
9228;SDS011;4649;42.644;23.284;2022-10-10T13:26:46;7.57;;;3.90;;
9228;SDS011;4649;42.644;23.284;2022-10-10T13:29:17;3.63;;;3.43;;
9228;SDS011;4649;42.644;23.284;2022-10-10T13:31:47;6.60;;;4.30;;
9228;SDS011;4649;42.644;23.284;2022-10-10T13:34:17;6.53;;;5.37;;
9228;SDS011;4649;42.644;23.284;2022-10-10T13:36:48;4.73;;;4.43;;
9228;SDS011;4649;42.644;23.284;2022-10-10T13:39:15;9.27;;;5.10;;
9228;SDS011;4649;42.644;23.284;2022-10-10T13:41:43;24.60;;;5.07;;
9228;SDS011;4649;42.644;23.284;2022-10-10T13:44:12;7.43;;;4.37;;
9228;SDS011;4649;42.644;23.284;2022-10-10T13:46:40;15.00;;;5.60;;
9228;SDS011;4649;42.644;23.284;2022-10-10T13:49:12;4.87;;;3.83;;
9228;SDS011;4649;42.644;23.284;2022-10-10T13:51:46;4.63;;;4.23;;
9228;SDS011;4649;42.644;23.284;2022-10-10T13:57:09;5.53;;;4.50;;
9228;SDS011;4649;42.644;23.284;2022-10-10T13:59:40;4.70;;;4.03;;
9228;SDS011;4649;42.644;23.284;2022-10-10T14:02:10;7.40;;;4.27;;
9228;SDS011;4649;42.644;23.284;2022-10-10T14:04:43;5.40;;;4.80;;
9228;SDS011;4649;42.644;23.284;2022-10-10T14:07:15;18.37;;;5.47;;
9228;SDS011;4649;42.644;23.284;2022-10-10T14:09:47;5.17;;;4.43;;
9228;SDS011;4649;42.644;23.284;2022-10-10T14:12:18;5.97;;;4.73;;
9228;SDS011;4649;42.644;23.284;2022-10-10T14:14:51;5.80;;;4.40;;
9228;SDS011;4649;42.644;23.284;2022-10-10T14:17:18;10.43;;;4.67;;
9228;SDS011;4649;42.644;23.284;2022-10-10T14:19:46;5.17;;;4.67;;
9228;SDS011;4649;42.644;23.284;2022-10-10T14:22:16;4.80;;;4.40;;
9228;SDS011;4649;42.644;23.284;2022-10-10T14:24:43;10.10;;;4.27;;
9228;SDS011;4649;42.644;23.284;2022-10-10T14:27:11;4.43;;;4.13;;
9228;SDS011;4649;42.644;23.284;2022-10-10T14:29:41;4.53;;;4.33;;
9228;SDS011;4649;42.644;23.284;2022-10-10T14:32:08;5.23;;;4.83;;
9228;SDS011;4649;42.644;23.284;2022-10-10T14:34:36;6.70;;;4.30;;
9228;SDS011;4649;42.644;23.284;2022-10-10T14:37:03;4.70;;;4.30;;
9228;SDS011;4649;42.644;23.284;2022-10-10T14:39:32;5.20;;;4.90;;
9228;SDS011;4649;42.644;23.284;2022-10-10T14:42:00;9.30;;;4.90;;
9228;SDS011;4649;42.644;23.284;2022-10-10T14:44:27;6.47;;;4.97;;
9228;SDS011;4649;42.644;23.284;2022-10-10T14:46:54;8.33;;;5.07;;
9228;SDS011;4649;42.644;23.284;2022-10-10T14:49:21;6.73;;;5.43;;
9228;SDS011;4649;42.644;23.284;2022-10-10T14:51:48;7.07;;;5.00;;
9228;SDS011;4649;42.644;23.284;2022-10-10T14:54:15;8.90;;;5.33;;
9228;SDS011;4649;42.644;23.284;2022-10-10T14:56:44;5.73;;;5.13;;
9228;SDS011;4649;42.644;23.284;2022-10-10T14:59:14;6.00;;;4.67;;
9228;SDS011;4649;42.644;23.284;2022-10-10T15:01:42;5.90;;;5.30;;
9228;SDS011;4649;42.644;23.284;2022-10-10T15:04:09;5.07;;;4.63;;
9228;SDS011;4649;42.644;23.284;2022-10-10T15:06:36;4.90;;;4.40;;
9228;SDS011;4649;42.644;23.284;2022-10-10T15:09:03;11.43;;;4.63;;
9228;SDS011;4649;42.644;23.284;2022-10-10T15:11:30;6.87;;;4.70;;
9228;SDS011;4649;42.644;23.284;2022-10-10T15:13:58;4.83;;;4.47;;
9228;SDS011;4649;42.644;23.284;2022-10-10T15:16:25;5.70;;;5.30;;
9228;SDS011;4649;42.644;23.284;2022-10-10T15:18:52;5.67;;;5.27;;
9228;SDS011;4649;42.644;23.284;2022-10-10T15:21:18;6.47;;;6.07;;
9228;SDS011;4649;42.644;23.284;2022-10-10T15:23:45;7.30;;;5.90;;
9228;SDS011;4649;42.644;23.284;2022-10-10T15:26:12;6.07;;;5.40;;
9228;SDS011;4649;42.644;23.284;2022-10-10T15:28:39;5.83;;;5.30;;
9228;SDS011;4649;42.644;23.284;2022-10-10T15:31:07;8.80;;;5.20;;
9228;SDS011;4649;42.644;23.284;2022-10-10T15:33:34;5.40;;;5.00;;
9228;SDS011;4649;42.644;23.284;2022-10-10T15:36:01;6.10;;;5.57;;
9228;SDS011;4649;42.644;23.284;2022-10-10T15:38:31;6.30;;;4.83;;
9228;SDS011;4649;42.644;23.284;2022-10-10T15:41:00;5.40;;;4.90;;
9228;SDS011;4649;42.644;23.284;2022-10-10T15:43:28;7.97;;;5.10;;
9228;SDS011;4649;42.644;23.284;2022-10-10T15:45:56;6.90;;;5.47;;
9228;SDS011;4649;42.644;23.284;2022-10-10T15:48:25;10.87;;;5.90;;
9228;SDS011;4649;42.644;23.284;2022-10-10T15:50:52;6.83;;;6.20;;